sensor_id;sensor_type;location;lat;lon;timestamp;P1;durP1;ratioP1;P2;durP2;ratioP2
3359;SDS011;1693;49.602;11.046;2023-11-21T00:00:18;1.37;;;0.80;;
3359;SDS011;1693;49.602;11.046;2023-11-21T00:02:46;1.80;;;1.00;;
3359;SDS011;1693;49.602;11.046;2023-11-21T00:05:14;1.00;;;0.70;;
3359;SDS011;1693;49.602;11.046;2023-11-21T00:07:41;1.50;;;0.80;;
3359;SDS011;1693;49.602;11.046;2023-11-21T00:10:09;0.97;;;0.63;;
3359;SDS011;1693;49.602;11.046;2023-11-21T00:12:39;1.10;;;0.77;;
3359;SDS011;1693;49.602;11.046;2023-11-21T00:15:07;1.87;;;0.90;;
3359;SDS011;1693;49.602;11.046;2023-11-21T00:17:36;1.10;;;0.80;;
3359;SDS011;1693;49.602;11.046;2023-11-21T00:20:05;3.00;;;1.07;;
3359;SDS011;1693;49.602;11.046;2023-11-21T00:22:33;1.43;;;0.77;;
3359;SDS011;1693;49.602;11.046;2023-11-21T00:25:00;0.97;;;0.70;;
3359;SDS011;1693;49.602;11.046;2023-11-21T00:27:28;1.30;;;0.93;;
3359;SDS011;1693;49.602;11.046;2023-11-21T00:29:56;2.50;;;0.97;;
3359;SDS011;1693;49.602;11.046;2023-11-21T00:32:23;1.10;;;0.70;;
3359;SDS011;1693;49.602;11.046;2023-11-21T00:34:50;1.30;;;0.80;;
3359;SDS011;1693;49.602;11.046;2023-11-21T00:37:19;1.00;;;0.90;;
3359;SDS011;1693;49.602;11.046;2023-11-21T00:39:46;0.90;;;0.60;;
3359;SDS011;1693;49.602;11.046;2023-11-21T00:42:13;1.57;;;0.80;;
3359;SDS011;1693;49.602;11.046;2023-11-21T00:44:40;1.60;;;0.90;;
3359;SDS011;1693;49.602;11.046;2023-11-21T00:47:07;1.00;;;0.70;;
3359;SDS011;1693;49.602;11.046;2023-11-21T00:49:34;1.00;;;0.70;;
3359;SDS011;1693;49.602;11.046;2023-11-21T00:52:01;1.77;;;0.80;;
3359;SDS011;1693;49.602;11.046;2023-11-21T00:54:30;1.30;;;1.00;;
3359;SDS011;1693;49.602;11.046;2023-11-21T00:56:57;1.50;;;0.67;;
3359;SDS011;1693;49.602;11.046;2023-11-21T00:59:24;0.90;;;0.60;;
3359;SDS011;1693;49.602;11.046;2023-11-21T01:01:51;1.47;;;0.90;;
3359;SDS011;1693;49.602;11.046;2023-11-21T01:04:19;1.00;;;0.70;;
3359;SDS011;1693;49.602;11.046;2023-11-21T01:06:46;1.73;;;0.97;;
3359;SDS011;1693;49.602;11.046;2023-11-21T01:09:13;1.00;;;0.70;;
3359;SDS011;1693;49.602;11.046;2023-11-21T01:11:44;1.20;;;1.00;;
3359;SDS011;1693;49.602;11.046;2023-11-21T01:14:12;0.90;;;0.70;;
3359;SDS011;1693;49.602;11.046;2023-11-21T01:16:39;1.43;;;0.80;;
3359;SDS011;1693;49.602;11.046;2023-11-21T01:19:06;1.40;;;0.97;;
3359;SDS011;1693;49.602;11.046;2023-11-21T01:21:34;1.10;;;0.80;;
3359;SDS011;1693;49.602;11.046;2023-11-21T01:24:02;1.20;;;0.87;;
3359;SDS011;1693;49.602;11.046;2023-11-21T01:26:32;1.60;;;0.80;;
3359;SDS011;1693;49.602;11.046;2023-11-21T01:29:00;1.20;;;0.80;;
3359;SDS011;1693;49.602;11.046;2023-11-21T01:31:28;1.30;;;0.87;;
3359;SDS011;1693;49.602;11.046;2023-11-21T01:33:55;1.87;;;1.00;;
3359;SDS011;1693;49.602;11.046;2023-11-21T01:36:22;1.33;;;0.80;;
3359;SDS011;1693;49.602;11.046;2023-11-21T01:38:49;1.00;;;0.70;;
3359;SDS011;1693;49.602;11.046;2023-11-21T01:41:16;1.00;;;0.70;;
3359;SDS011;1693;49.602;11.046;2023-11-21T01:43:43;1.10;;;0.80;;
3359;SDS011;1693;49.602;11.046;2023-11-21T01:46:12;1.13;;;0.80;;
3359;SDS011;1693;49.602;11.046;2023-11-21T01:48:40;1.20;;;0.80;;
3359;SDS011;1693;49.602;11.046;2023-11-21T01:51:08;1.20;;;0.77;;
3359;SDS011;1693;49.602;11.046;2023-11-21T01:53:36;1.30;;;1.10;;
3359;SDS011;1693;49.602;11.046;2023-11-21T01:56:03;1.17;;;0.87;;
3359;SDS011;1693;49.602;11.046;2023-11-21T01:58:33;1.30;;;0.90;;
3359;SDS011;1693;49.602;11.046;2023-11-21T02:01:00;1.10;;;0.80;;
3359;SDS011;1693;49.602;11.046;2023-11-21T02:03:29;1.40;;;1.03;;
3359;SDS011;1693;49.602;11.046;2023-11-21T02:05:56;1.30;;;0.77;;
3359;SDS011;1693;49.602;11.046;2023-11-21T02:08:23;1.57;;;0.97;;
3359;SDS011;1693;49.602;11.046;2023-11-21T02:10:52;1.17;;;0.83;;
3359;SDS011;1693;49.602;11.046;2023-11-21T02:13:19;1.20;;;1.00;;
3359;SDS011;1693;49.602;11.046;2023-11-21T02:15:46;1.07;;;0.90;;
3359;SDS011;1693;49.602;11.046;2023-11-21T02:18:15;1.03;;;0.80;;
3359;SDS011;1693;49.602;11.046;2023-11-21T02:20:44;1.60;;;1.10;;
3359;SDS011;1693;49.602;11.046;2023-11-21T02:23:15;1.57;;;1.20;;
3359;SDS011;1693;49.602;11.046;2023-11-21T02:25:43;1.60;;;1.07;;
3359;SDS011;1693;49.602;11.046;2023-11-21T02:28:10;1.40;;;1.00;;
3359;SDS011;1693;49.602;11.046;2023-11-21T02:30:38;1.30;;;0.90;;
3359;SDS011;1693;49.602;11.046;2023-11-21T02:33:05;1.10;;;0.97;;
3359;SDS011;1693;49.602;11.046;2023-11-21T02:35:32;2.80;;;1.07;;
3359;SDS011;1693;49.602;11.046;2023-11-21T02:38:00;2.07;;;1.27;;
3359;SDS011;1693;49.602;11.046;2023-11-21T02:40:28;1.50;;;1.07;;
3359;SDS011;1693;49.602;11.046;2023-11-21T02:42:56;1.63;;;1.00;;
3359;SDS011;1693;49.602;11.046;2023-11-21T02:45:24;2.17;;;0.90;;
3359;SDS011;1693;49.602;11.046;2023-11-21T02:47:51;1.73;;;1.47;;
3359;SDS011;1693;49.602;11.046;2023-11-21T02:50:22;2.00;;;1.00;;
3359;SDS011;1693;49.602;11.046;2023-11-21T02:52:49;1.07;;;0.87;;
3359;SDS011;1693;49.602;11.046;2023-11-21T02:55:16;1.30;;;0.80;;
3359;SDS011;1693;49.602;11.046;2023-11-21T02:57:44;1.20;;;0.90;;
3359;SDS011;1693;49.602;11.046;2023-11-21T03:00:12;1.70;;;1.00;;
3359;SDS011;1693;49.602;11.046;2023-11-21T03:02:42;1.40;;;1.20;;
3359;SDS011;1693;49.602;11.046;2023-11-21T03:05:09;1.30;;;0.90;;
3359;SDS011;1693;49.602;11.046;2023-11-21T03:07:37;1.70;;;1.20;;
3359;SDS011;1693;49.602;11.046;2023-11-21T03:10:05;3.10;;;0.90;;
3359;SDS011;1693;49.602;11.046;2023-11-21T03:12:34;1.70;;;1.03;;
3359;SDS011;1693;49.602;11.046;2023-11-21T03:15:03;1.93;;;1.37;;
3359;SDS011;1693;49.602;11.046;2023-11-21T03:17:31;1.10;;;1.00;;
3359;SDS011;1693;49.602;11.046;2023-11-21T03:19:59;1.53;;;1.10;;
3359;SDS011;1693;49.602;11.046;2023-11-21T03:22:26;1.87;;;1.20;;
3359;SDS011;1693;49.602;11.046;2023-11-21T03:24:53;1.50;;;1.10;;
3359;SDS011;1693;49.602;11.046;2023-11-21T03:27:21;1.43;;;1.20;;
3359;SDS011;1693;49.602;11.046;2023-11-21T03:29:48;1.33;;;1.20;;
3359;SDS011;1693;49.602;11.046;2023-11-21T03:32:17;1.67;;;1.50;;
3359;SDS011;1693;49.602;11.046;2023-11-21T03:37:31;1.73;;;1.30;;
3359;SDS011;1693;49.602;11.046;2023-11-21T03:39:58;1.43;;;1.07;;
3359;SDS011;1693;49.602;11.046;2023-11-21T03:42:25;1.97;;;1.20;;
3359;SDS011;1693;49.602;11.046;2023-11-21T03:44:52;1.67;;;1.00;;
3359;SDS011;1693;49.602;11.046;2023-11-21T03:47:21;1.83;;;1.63;;
3359;SDS011;1693;49.602;11.046;2023-11-21T03:49:49;1.50;;;1.10;;
3359;SDS011;1693;49.602;11.046;2023-11-21T03:52:16;1.60;;;1.17;;
3359;SDS011;1693;49.602;11.046;2023-11-21T03:54:43;1.87;;;0.97;;
3359;SDS011;1693;49.602;11.046;2023-11-21T03:57:10;1.80;;;1.27;;
3359;SDS011;1693;49.602;11.046;2023-11-21T03:59:39;1.40;;;1.10;;
3359;SDS011;1693;49.602;11.046;2023-11-21T04:02:07;2.50;;;1.30;;
3359;SDS011;1693;49.602;11.046;2023-11-21T04:04:35;1.53;;;1.10;;
3359;SDS011;1693;49.602;11.046;2023-11-21T04:07:02;2.50;;;1.60;;
3359;SDS011;1693;49.602;11.046;2023-11-21T04:09:30;2.03;;;1.60;;
3359;SDS011;1693;49.602;11.046;2023-11-21T04:11:57;2.20;;;1.50;;
3359;SDS011;1693;49.602;11.046;2023-11-21T04:14:24;2.37;;;1.60;;
3359;SDS011;1693;49.602;11.046;2023-11-21T04:16:51;2.67;;;1.33;;
3359;SDS011;1693;49.602;11.046;2023-11-21T04:19:18;2.13;;;1.93;;
3359;SDS011;1693;49.602;11.046;2023-11-21T04:21:47;3.20;;;2.23;;
3359;SDS011;1693;49.602;11.046;2023-11-21T04:24:14;1.47;;;1.20;;
3359;SDS011;1693;49.602;11.046;2023-11-21T04:26:41;1.77;;;1.43;;
3359;SDS011;1693;49.602;11.046;2023-11-21T04:29:09;1.50;;;1.20;;
3359;SDS011;1693;49.602;11.046;2023-11-21T04:31:36;1.87;;;1.63;;
3359;SDS011;1693;49.602;11.046;2023-11-21T04:34:03;2.10;;;1.70;;
3359;SDS011;1693;49.602;11.046;2023-11-21T04:36:30;2.67;;;2.00;;
3359;SDS011;1693;49.602;11.046;2023-11-21T04:38:59;3.13;;;2.00;;
3359;SDS011;1693;49.602;11.046;2023-11-21T04:41:26;2.50;;;1.43;;
3359;SDS011;1693;49.602;11.046;2023-11-21T04:43:53;2.73;;;1.43;;
3359;SDS011;1693;49.602;11.046;2023-11-21T04:46:21;2.20;;;1.60;;
3359;SDS011;1693;49.602;11.046;2023-11-21T04:48:48;1.30;;;1.10;;
3359;SDS011;1693;49.602;11.046;2023-11-21T04:51:15;2.00;;;1.80;;
3359;SDS011;1693;49.602;11.046;2023-11-21T04:53:43;5.60;;;2.23;;
3359;SDS011;1693;49.602;11.046;2023-11-21T04:56:11;2.07;;;1.87;;
3359;SDS011;1693;49.602;11.046;2023-11-21T04:58:38;2.40;;;1.80;;
3359;SDS011;1693;49.602;11.046;2023-11-21T05:01:06;1.80;;;1.47;;
3359;SDS011;1693;49.602;11.046;2023-11-21T05:03:34;2.23;;;1.97;;
3359;SDS011;1693;49.602;11.046;2023-11-21T05:06:03;2.40;;;1.93;;
3359;SDS011;1693;49.602;11.046;2023-11-21T05:08:31;3.00;;;1.70;;
3359;SDS011;1693;49.602;11.046;2023-11-21T05:10:57;3.30;;;2.20;;
3359;SDS011;1693;49.602;11.046;2023-11-21T05:13:26;2.07;;;1.73;;
3359;SDS011;1693;49.602;11.046;2023-11-21T05:15:53;2.27;;;1.87;;
3359;SDS011;1693;49.602;11.046;2023-11-21T05:18:21;2.37;;;1.70;;
3359;SDS011;1693;49.602;11.046;2023-11-21T05:20:48;2.67;;;1.93;;
3359;SDS011;1693;49.602;11.046;2023-11-21T05:23:15;2.30;;;1.73;;
3359;SDS011;1693;49.602;11.046;2023-11-21T05:25:42;2.60;;;2.00;;
3359;SDS011;1693;49.602;11.046;2023-11-21T05:28:09;2.70;;;2.07;;
3359;SDS011;1693;49.602;11.046;2023-11-21T05:30:37;4.27;;;2.37;;
3359;SDS011;1693;49.602;11.046;2023-11-21T05:33:05;5.47;;;1.90;;
3359;SDS011;1693;49.602;11.046;2023-11-21T05:35:32;2.17;;;1.97;;
3359;SDS011;1693;49.602;11.046;2023-11-21T05:37:59;2.57;;;1.87;;
3359;SDS011;1693;49.602;11.046;2023-11-21T05:40:29;2.07;;;1.60;;
3359;SDS011;1693;49.602;11.046;2023-11-21T05:42:57;2.43;;;2.07;;
3359;SDS011;1693;49.602;11.046;2023-11-21T05:45:25;2.80;;;2.27;;
3359;SDS011;1693;49.602;11.046;2023-11-21T05:47:57;2.80;;;2.43;;
3359;SDS011;1693;49.602;11.046;2023-11-21T05:50:29;2.30;;;1.93;;
3359;SDS011;1693;49.602;11.046;2023-11-21T05:52:58;2.60;;;1.77;;
3359;SDS011;1693;49.602;11.046;2023-11-21T05:55:26;7.07;;;3.77;;
3359;SDS011;1693;49.602;11.046;2023-11-21T05:57:56;3.03;;;2.40;;
3359;SDS011;1693;49.602;11.046;2023-11-21T06:00:26;2.40;;;2.03;;
3359;SDS011;1693;49.602;11.046;2023-11-21T06:02:58;3.20;;;1.67;;
3359;SDS011;1693;49.602;11.046;2023-11-21T06:05:27;2.70;;;2.30;;
3359;SDS011;1693;49.602;11.046;2023-11-21T06:07:57;2.30;;;1.90;;
3359;SDS011;1693;49.602;11.046;2023-11-21T06:10:26;4.07;;;2.83;;
3359;SDS011;1693;49.602;11.046;2023-11-21T06:12:53;3.87;;;2.47;;
3359;SDS011;1693;49.602;11.046;2023-11-21T06:15:21;3.00;;;2.10;;
3359;SDS011;1693;49.602;11.046;2023-11-21T06:17:48;3.00;;;2.10;;
3359;SDS011;1693;49.602;11.046;2023-11-21T06:20:19;8.00;;;4.57;;
3359;SDS011;1693;49.602;11.046;2023-11-21T06:22:48;3.20;;;2.40;;
3359;SDS011;1693;49.602;11.046;2023-11-21T06:25:16;3.60;;;2.57;;
3359;SDS011;1693;49.602;11.046;2023-11-21T06:27:44;4.87;;;2.40;;
3359;SDS011;1693;49.602;11.046;2023-11-21T06:30:12;2.87;;;2.57;;
3359;SDS011;1693;49.602;11.046;2023-11-21T06:32:40;2.70;;;2.37;;
3359;SDS011;1693;49.602;11.046;2023-11-21T06:35:10;5.27;;;3.57;;
3359;SDS011;1693;49.602;11.046;2023-11-21T06:37:39;5.43;;;3.40;;
3359;SDS011;1693;49.602;11.046;2023-11-21T06:40:08;4.20;;;2.83;;
3359;SDS011;1693;49.602;11.046;2023-11-21T06:42:37;3.10;;;2.50;;
3359;SDS011;1693;49.602;11.046;2023-11-21T06:45:04;3.40;;;2.63;;
3359;SDS011;1693;49.602;11.046;2023-11-21T06:47:33;3.90;;;3.23;;
3359;SDS011;1693;49.602;11.046;2023-11-21T06:50:01;4.03;;;3.20;;
3359;SDS011;1693;49.602;11.046;2023-11-21T06:52:29;3.63;;;2.40;;
3359;SDS011;1693;49.602;11.046;2023-11-21T06:54:58;4.20;;;3.23;;
3359;SDS011;1693;49.602;11.046;2023-11-21T06:57:25;4.20;;;3.40;;
3359;SDS011;1693;49.602;11.046;2023-11-21T06:59:52;3.77;;;3.27;;
3359;SDS011;1693;49.602;11.046;2023-11-21T07:02:20;3.43;;;2.70;;
3359;SDS011;1693;49.602;11.046;2023-11-21T07:04:47;4.07;;;3.00;;
3359;SDS011;1693;49.602;11.046;2023-11-21T07:07:14;4.60;;;3.57;;
3359;SDS011;1693;49.602;11.046;2023-11-21T07:09:41;4.37;;;2.43;;
3359;SDS011;1693;49.602;11.046;2023-11-21T07:12:10;3.90;;;2.90;;
3359;SDS011;1693;49.602;11.046;2023-11-21T07:14:37;3.20;;;2.83;;
3359;SDS011;1693;49.602;11.046;2023-11-21T07:17:08;4.63;;;3.57;;
3359;SDS011;1693;49.602;11.046;2023-11-21T07:19:36;5.07;;;2.80;;
3359;SDS011;1693;49.602;11.046;2023-11-21T07:22:05;4.10;;;2.90;;
3359;SDS011;1693;49.602;11.046;2023-11-21T07:24:33;4.53;;;3.27;;
3359;SDS011;1693;49.602;11.046;2023-11-21T07:27:02;4.13;;;2.67;;
3359;SDS011;1693;49.602;11.046;2023-11-21T07:29:30;7.30;;;3.63;;
3359;SDS011;1693;49.602;11.046;2023-11-21T07:31:58;5.60;;;3.53;;
3359;SDS011;1693;49.602;11.046;2023-11-21T07:34:25;7.23;;;3.30;;
3359;SDS011;1693;49.602;11.046;2023-11-21T07:36:53;4.00;;;3.33;;
3359;SDS011;1693;49.602;11.046;2023-11-21T07:39:37;5.30;;;3.10;;
3359;SDS011;1693;49.602;11.046;2023-11-21T07:42:07;6.00;;;4.33;;
3359;SDS011;1693;49.602;11.046;2023-11-21T07:44:35;3.60;;;3.00;;
3359;SDS011;1693;49.602;11.046;2023-11-21T07:47:03;7.20;;;5.00;;
3359;SDS011;1693;49.602;11.046;2023-11-21T07:49:31;4.07;;;3.30;;
3359;SDS011;1693;49.602;11.046;2023-11-21T07:51:58;5.37;;;3.10;;
3359;SDS011;1693;49.602;11.046;2023-11-21T07:54:25;5.13;;;3.50;;
3359;SDS011;1693;49.602;11.046;2023-11-21T07:56:53;4.57;;;3.40;;
3359;SDS011;1693;49.602;11.046;2023-11-21T07:59:20;4.17;;;2.97;;
3359;SDS011;1693;49.602;11.046;2023-11-21T08:01:48;6.30;;;4.07;;
3359;SDS011;1693;49.602;11.046;2023-11-21T08:04:16;3.97;;;2.83;;
3359;SDS011;1693;49.602;11.046;2023-11-21T08:06:44;5.53;;;3.83;;
3359;SDS011;1693;49.602;11.046;2023-11-21T08:09:11;3.90;;;3.40;;
3359;SDS011;1693;49.602;11.046;2023-11-21T08:11:39;4.70;;;4.20;;
3359;SDS011;1693;49.602;11.046;2023-11-21T08:14:06;5.37;;;2.97;;
3359;SDS011;1693;49.602;11.046;2023-11-21T08:16:34;6.67;;;2.90;;
3359;SDS011;1693;49.602;11.046;2023-11-21T08:19:06;4.83;;;3.13;;
3359;SDS011;1693;49.602;11.046;2023-11-21T08:21:35;3.07;;;2.50;;
3359;SDS011;1693;49.602;11.046;2023-11-21T08:24:06;7.03;;;3.10;;
3359;SDS011;1693;49.602;11.046;2023-11-21T08:26:42;3.93;;;3.53;;
3359;SDS011;1693;49.602;11.046;2023-11-21T08:29:09;4.90;;;4.27;;
3359;SDS011;1693;49.602;11.046;2023-11-21T08:31:36;6.63;;;3.57;;
3359;SDS011;1693;49.602;11.046;2023-11-21T08:34:07;5.83;;;4.17;;
3359;SDS011;1693;49.602;11.046;2023-11-21T08:36:34;6.33;;;3.40;;
3359;SDS011;1693;49.602;11.046;2023-11-21T08:39:01;10.77;;;7.47;;
3359;SDS011;1693;49.602;11.046;2023-11-21T08:41:28;5.70;;;4.43;;
3359;SDS011;1693;49.602;11.046;2023-11-21T08:43:55;5.07;;;3.70;;
3359;SDS011;1693;49.602;11.046;2023-11-21T08:46:23;7.30;;;4.30;;
3359;SDS011;1693;49.602;11.046;2023-11-21T08:48:51;4.67;;;3.60;;
3359;SDS011;1693;49.602;11.046;2023-11-21T08:51:19;7.07;;;4.50;;
3359;SDS011;1693;49.602;11.046;2023-11-21T08:53:46;6.37;;;4.13;;
3359;SDS011;1693;49.602;11.046;2023-11-21T08:56:13;6.63;;;4.53;;
3359;SDS011;1693;49.602;11.046;2023-11-21T08:58:40;5.53;;;3.97;;
3359;SDS011;1693;49.602;11.046;2023-11-21T09:01:07;6.80;;;4.77;;
3359;SDS011;1693;49.602;11.046;2023-11-21T09:03:35;4.97;;;3.97;;
3359;SDS011;1693;49.602;11.046;2023-11-21T09:06:02;6.93;;;4.50;;
3359;SDS011;1693;49.602;11.046;2023-11-21T09:08:31;6.57;;;5.10;;
3359;SDS011;1693;49.602;11.046;2023-11-21T09:10:58;9.93;;;5.87;;
3359;SDS011;1693;49.602;11.046;2023-11-21T09:13:25;4.63;;;3.63;;
3359;SDS011;1693;49.602;11.046;2023-11-21T09:15:53;6.03;;;3.07;;
3359;SDS011;1693;49.602;11.046;2023-11-21T09:18:20;5.97;;;3.80;;
3359;SDS011;1693;49.602;11.046;2023-11-21T09:20:49;4.93;;;3.90;;
3359;SDS011;1693;49.602;11.046;2023-11-21T09:23:35;5.60;;;3.07;;
3359;SDS011;1693;49.602;11.046;2023-11-21T09:26:30;11.23;;;5.67;;
3359;SDS011;1693;49.602;11.046;2023-11-21T09:28:57;7.93;;;3.90;;
3359;SDS011;1693;49.602;11.046;2023-11-21T09:31:24;5.70;;;3.70;;
3359;SDS011;1693;49.602;11.046;2023-11-21T09:33:52;6.93;;;3.93;;
3359;SDS011;1693;49.602;11.046;2023-11-21T09:36:19;6.50;;;4.27;;
3359;SDS011;1693;49.602;11.046;2023-11-21T09:38:52;5.13;;;3.40;;
3359;SDS011;1693;49.602;11.046;2023-11-21T09:41:23;3.97;;;3.00;;
3359;SDS011;1693;49.602;11.046;2023-11-21T09:44:08;9.00;;;4.03;;
3359;SDS011;1693;49.602;11.046;2023-11-21T09:46:38;4.67;;;3.60;;
3359;SDS011;1693;49.602;11.046;2023-11-21T09:49:08;7.07;;;4.60;;
3359;SDS011;1693;49.602;11.046;2023-11-21T09:51:37;8.33;;;3.83;;
3359;SDS011;1693;49.602;11.046;2023-11-21T09:54:08;9.40;;;4.60;;
3359;SDS011;1693;49.602;11.046;2023-11-21T09:56:36;6.93;;;3.93;;
3359;SDS011;1693;49.602;11.046;2023-11-21T09:59:04;5.40;;;3.63;;
3359;SDS011;1693;49.602;11.046;2023-11-21T10:01:37;6.07;;;3.93;;
3359;SDS011;1693;49.602;11.046;2023-11-21T10:04:07;10.30;;;4.30;;
3359;SDS011;1693;49.602;11.046;2023-11-21T10:06:37;8.73;;;5.60;;
3359;SDS011;1693;49.602;11.046;2023-11-21T10:09:06;5.93;;;4.13;;
3359;SDS011;1693;49.602;11.046;2023-11-21T10:11:37;6.70;;;4.30;;
3359;SDS011;1693;49.602;11.046;2023-11-21T10:14:08;7.63;;;2.80;;
3359;SDS011;1693;49.602;11.046;2023-11-21T10:16:40;5.20;;;4.07;;
3359;SDS011;1693;49.602;11.046;2023-11-21T10:19:09;4.83;;;3.93;;
3359;SDS011;1693;49.602;11.046;2023-11-21T10:21:39;6.50;;;4.50;;
3359;SDS011;1693;49.602;11.046;2023-11-21T10:24:06;7.10;;;3.70;;
3359;SDS011;1693;49.602;11.046;2023-11-21T10:26:34;5.93;;;4.10;;
3359;SDS011;1693;49.602;11.046;2023-11-21T10:29:02;6.23;;;4.00;;
3359;SDS011;1693;49.602;11.046;2023-11-21T10:31:29;6.90;;;4.53;;
3359;SDS011;1693;49.602;11.046;2023-11-21T10:33:58;5.03;;;4.03;;
3359;SDS011;1693;49.602;11.046;2023-11-21T10:36:40;7.00;;;3.80;;
3359;SDS011;1693;49.602;11.046;2023-11-21T10:39:07;6.23;;;3.83;;
3359;SDS011;1693;49.602;11.046;2023-11-21T10:41:44;4.70;;;3.93;;
3359;SDS011;1693;49.602;11.046;2023-11-21T10:44:13;4.80;;;3.30;;
3359;SDS011;1693;49.602;11.046;2023-11-21T10:46:45;5.30;;;4.03;;
3359;SDS011;1693;49.602;11.046;2023-11-21T10:49:19;5.37;;;3.77;;
3359;SDS011;1693;49.602;11.046;2023-11-21T10:51:49;4.47;;;3.37;;
3359;SDS011;1693;49.602;11.046;2023-11-21T10:54:21;4.87;;;3.97;;
3359;SDS011;1693;49.602;11.046;2023-11-21T10:56:50;4.17;;;3.23;;
3359;SDS011;1693;49.602;11.046;2023-11-21T10:59:20;3.10;;;2.80;;
3359;SDS011;1693;49.602;11.046;2023-11-21T11:01:50;3.07;;;2.50;;
3359;SDS011;1693;49.602;11.046;2023-11-21T11:04:20;4.13;;;3.30;;
3359;SDS011;1693;49.602;11.046;2023-11-21T11:06:51;4.03;;;3.60;;
3359;SDS011;1693;49.602;11.046;2023-11-21T11:09:21;4.00;;;3.30;;
3359;SDS011;1693;49.602;11.046;2023-11-21T11:11:49;4.50;;;3.33;;
3359;SDS011;1693;49.602;11.046;2023-11-21T11:14:20;4.57;;;4.00;;
3359;SDS011;1693;49.602;11.046;2023-11-21T11:16:50;3.50;;;3.10;;
3359;SDS011;1693;49.602;11.046;2023-11-21T11:19:23;9.10;;;3.90;;
3359;SDS011;1693;49.602;11.046;2023-11-21T11:21:54;3.63;;;3.00;;
3359;SDS011;1693;49.602;11.046;2023-11-21T11:24:36;3.70;;;3.10;;
3359;SDS011;1693;49.602;11.046;2023-11-21T11:27:15;5.77;;;3.67;;
3359;SDS011;1693;49.602;11.046;2023-11-21T11:29:52;4.20;;;3.63;;
3359;SDS011;1693;49.602;11.046;2023-11-21T11:32:40;5.40;;;3.90;;
3359;SDS011;1693;49.602;11.046;2023-11-21T11:35:24;3.60;;;2.83;;
3359;SDS011;1693;49.602;11.046;2023-11-21T11:37:55;4.03;;;3.37;;
3359;SDS011;1693;49.602;11.046;2023-11-21T11:40:25;3.70;;;3.10;;
3359;SDS011;1693;49.602;11.046;2023-11-21T11:43:05;3.10;;;2.53;;
3359;SDS011;1693;49.602;11.046;2023-11-21T11:45:33;4.23;;;2.73;;
3359;SDS011;1693;49.602;11.046;2023-11-21T11:48:06;5.10;;;4.03;;
3359;SDS011;1693;49.602;11.046;2023-11-21T11:50:34;4.83;;;3.33;;
3359;SDS011;1693;49.602;11.046;2023-11-21T11:53:14;3.90;;;3.50;;
3359;SDS011;1693;49.602;11.046;2023-11-21T11:55:43;4.10;;;2.43;;
3359;SDS011;1693;49.602;11.046;2023-11-21T11:58:12;4.53;;;3.00;;
3359;SDS011;1693;49.602;11.046;2023-11-21T12:00:41;3.63;;;2.90;;
3359;SDS011;1693;49.602;11.046;2023-11-21T12:03:10;4.60;;;3.23;;
3359;SDS011;1693;49.602;11.046;2023-11-21T12:05:40;3.97;;;3.50;;
3359;SDS011;1693;49.602;11.046;2023-11-21T12:08:10;2.80;;;2.37;;
3359;SDS011;1693;49.602;11.046;2023-11-21T12:10:38;2.97;;;2.57;;
3359;SDS011;1693;49.602;11.046;2023-11-21T12:13:06;3.33;;;2.40;;
3359;SDS011;1693;49.602;11.046;2023-11-21T12:15:35;3.40;;;2.57;;
3359;SDS011;1693;49.602;11.046;2023-11-21T12:18:03;2.60;;;2.40;;
3359;SDS011;1693;49.602;11.046;2023-11-21T12:20:31;3.40;;;2.73;;
3359;SDS011;1693;49.602;11.046;2023-11-21T12:23:06;4.40;;;2.17;;
3359;SDS011;1693;49.602;11.046;2023-11-21T12:25:40;2.37;;;1.90;;
3359;SDS011;1693;49.602;11.046;2023-11-21T12:28:08;2.43;;;1.70;;
3359;SDS011;1693;49.602;11.046;2023-11-21T12:30:37;2.20;;;2.00;;
3359;SDS011;1693;49.602;11.046;2023-11-21T12:33:11;4.73;;;2.60;;
3359;SDS011;1693;49.602;11.046;2023-11-21T12:35:42;2.87;;;2.57;;
3359;SDS011;1693;49.602;11.046;2023-11-21T12:38:11;2.90;;;2.40;;
3359;SDS011;1693;49.602;11.046;2023-11-21T12:40:40;2.37;;;1.83;;
3359;SDS011;1693;49.602;11.046;2023-11-21T12:43:07;2.43;;;2.03;;
3359;SDS011;1693;49.602;11.046;2023-11-21T12:45:39;2.80;;;2.40;;
3359;SDS011;1693;49.602;11.046;2023-11-21T12:48:09;2.33;;;2.10;;
3359;SDS011;1693;49.602;11.046;2023-11-21T12:50:48;2.43;;;1.50;;
3359;SDS011;1693;49.602;11.046;2023-11-21T12:53:21;1.37;;;1.27;;
3359;SDS011;1693;49.602;11.046;2023-11-21T12:55:48;1.90;;;1.40;;
3359;SDS011;1693;49.602;11.046;2023-11-21T12:58:16;1.60;;;1.43;;
3359;SDS011;1693;49.602;11.046;2023-11-21T13:00:46;2.07;;;1.40;;
3359;SDS011;1693;49.602;11.046;2023-11-21T13:03:14;2.23;;;1.93;;
3359;SDS011;1693;49.602;11.046;2023-11-21T13:05:51;1.70;;;1.57;;
3359;SDS011;1693;49.602;11.046;2023-11-21T13:08:20;1.63;;;1.10;;
3359;SDS011;1693;49.602;11.046;2023-11-21T13:10:50;1.33;;;1.23;;
3359;SDS011;1693;49.602;11.046;2023-11-21T13:13:20;1.30;;;1.17;;
3359;SDS011;1693;49.602;11.046;2023-11-21T13:15:49;1.30;;;1.17;;
3359;SDS011;1693;49.602;11.046;2023-11-21T13:18:17;1.50;;;1.10;;
3359;SDS011;1693;49.602;11.046;2023-11-21T13:20:46;2.00;;;1.60;;
3359;SDS011;1693;49.602;11.046;2023-11-21T13:23:16;2.27;;;2.07;;
3359;SDS011;1693;49.602;11.046;2023-11-21T13:25:47;1.60;;;1.27;;
3359;SDS011;1693;49.602;11.046;2023-11-21T13:28:16;1.40;;;1.20;;
3359;SDS011;1693;49.602;11.046;2023-11-21T13:30:46;1.10;;;0.70;;
3359;SDS011;1693;49.602;11.046;2023-11-21T13:33:15;1.70;;;1.07;;
3359;SDS011;1693;49.602;11.046;2023-11-21T13:35:43;1.57;;;1.30;;
3359;SDS011;1693;49.602;11.046;2023-11-21T13:38:13;1.70;;;1.47;;
3359;SDS011;1693;49.602;11.046;2023-11-21T13:40:42;1.63;;;1.10;;
3359;SDS011;1693;49.602;11.046;2023-11-21T13:43:18;1.33;;;1.00;;
3359;SDS011;1693;49.602;11.046;2023-11-21T13:45:47;1.53;;;1.20;;
3359;SDS011;1693;49.602;11.046;2023-11-21T13:48:17;1.20;;;0.93;;
3359;SDS011;1693;49.602;11.046;2023-11-21T13:50:53;3.20;;;1.10;;
3359;SDS011;1693;49.602;11.046;2023-11-21T13:53:24;1.70;;;1.20;;
3359;SDS011;1693;49.602;11.046;2023-11-21T13:55:52;1.63;;;0.90;;
3359;SDS011;1693;49.602;11.046;2023-11-21T13:58:23;1.90;;;1.50;;
3359;SDS011;1693;49.602;11.046;2023-11-21T14:01:00;1.37;;;1.10;;
3359;SDS011;1693;49.602;11.046;2023-11-21T14:03:31;1.30;;;1.17;;
3359;SDS011;1693;49.602;11.046;2023-11-21T14:06:05;2.77;;;1.77;;
3359;SDS011;1693;49.602;11.046;2023-11-21T14:08:39;1.57;;;1.30;;
3359;SDS011;1693;49.602;11.046;2023-11-21T14:11:09;1.17;;;0.90;;
3359;SDS011;1693;49.602;11.046;2023-11-21T14:13:39;1.40;;;1.20;;
3359;SDS011;1693;49.602;11.046;2023-11-21T14:16:11;1.80;;;1.60;;
3359;SDS011;1693;49.602;11.046;2023-11-21T14:18:39;1.77;;;1.37;;
3359;SDS011;1693;49.602;11.046;2023-11-21T14:21:17;1.73;;;1.23;;
3359;SDS011;1693;49.602;11.046;2023-11-21T14:23:44;1.50;;;1.20;;
3359;SDS011;1693;49.602;11.046;2023-11-21T14:26:13;1.87;;;1.40;;
3359;SDS011;1693;49.602;11.046;2023-11-21T14:28:41;1.40;;;1.20;;
3359;SDS011;1693;49.602;11.046;2023-11-21T14:31:08;1.30;;;1.10;;
3359;SDS011;1693;49.602;11.046;2023-11-21T14:33:39;2.10;;;1.00;;
3359;SDS011;1693;49.602;11.046;2023-11-21T14:36:07;1.50;;;1.40;;
3359;SDS011;1693;49.602;11.046;2023-11-21T14:38:35;2.27;;;1.60;;
3359;SDS011;1693;49.602;11.046;2023-11-21T14:41:02;3.97;;;1.17;;
3359;SDS011;1693;49.602;11.046;2023-11-21T14:43:34;1.67;;;1.10;;
3359;SDS011;1693;49.602;11.046;2023-11-21T14:46:02;1.30;;;1.03;;
3359;SDS011;1693;49.602;11.046;2023-11-21T14:48:33;3.20;;;1.07;;
3359;SDS011;1693;49.602;11.046;2023-11-21T14:51:08;1.30;;;1.13;;
3359;SDS011;1693;49.602;11.046;2023-11-21T14:53:53;1.67;;;1.37;;
3359;SDS011;1693;49.602;11.046;2023-11-21T14:56:20;1.70;;;1.40;;
3359;SDS011;1693;49.602;11.046;2023-11-21T14:58:53;3.07;;;1.80;;
3359;SDS011;1693;49.602;11.046;2023-11-21T15:01:22;1.57;;;1.13;;
3359;SDS011;1693;49.602;11.046;2023-11-21T15:04:05;1.30;;;1.07;;
3359;SDS011;1693;49.602;11.046;2023-11-21T15:06:32;2.33;;;1.40;;
3359;SDS011;1693;49.602;11.046;2023-11-21T15:08:58;2.17;;;1.43;;
3359;SDS011;1693;49.602;11.046;2023-11-21T15:11:54;2.10;;;1.37;;
3359;SDS011;1693;49.602;11.046;2023-11-21T15:14:26;3.43;;;2.40;;